Time;durP1;ratioP1;P1;durP2;ratioP2;P2;SDS_P1;SDS_P2;PMS_P1;PMS_P2;Temp;Humidity;BMP_temperature;BMP_pressure;BME280_temperature;BME280_humidity;BME280_pressure;Samples;Min_cycle;Max_cycle;Signal;HPM_P1;HPM_P2
2023/06/18 00:01:59;;;;;;;35.33;23.93;;;;;;;;;;4969562;28;20055;-60
2023/06/18 00:04:25;;;;;;;28.63;20.13;;;;;;;;;;4968639;28;20424;-60
2023/06/18 00:06:52;;;;;;;34.87;23.73;;;;;;;;;;4969818;28;20054;-61
2023/06/18 00:09:18;;;;;;;36.50;22.27;;;;;;;;;;4969321;28;20055;-61
2023/06/18 00:11:44;;;;;;;38.27;24.83;;;;;;;;;;4969716;28;20133;-61
2023/06/18 00:14:10;;;;;;;43.40;26.93;;;;;;;;;;4969211;28;20194;-61
2023/06/18 00:16:36;;;;;;;38.03;27.27;;;;;;;;;;4969831;28;20118;-60
2023/06/18 00:19:02;;;;;;;40.83;26.00;;;;;;;;;;4969507;28;20042;-61
2023/06/18 00:21:28;;;;;;;47.37;27.93;;;;;;;;;;4969515;28;20054;-60
2023/06/18 00:23:54;;;;;;;40.50;27.13;;;;;;;;;;4969074;28;20417;-60
2023/06/18 00:26:20;;;;;;;46.97;29.10;;;;;;;;;;4969501;28;20038;-60
2023/06/18 00:28:46;;;;;;;49.07;29.63;;;;;;;;;;4969375;28;20062;-61
2023/06/18 00:31:13;;;;;;;41.50;26.67;;;;;;;;;;4962469;28;20035;-60
2023/06/18 00:33:39;;;;;;;47.63;28.73;;;;;;;;;;4950073;29;20126;-61
2023/06/18 00:36:06;;;;;;;48.40;29.07;;;;;;;;;;4949939;29;20467;-60
2023/06/18 00:38:34;;;;;;;45.70;28.03;;;;;;;;;;4950123;29;20152;-60
2023/06/18 00:41:00;;;;;;;48.13;28.37;;;;;;;;;;4949848;29;20055;-60
2023/06/18 00:43:29;;;;;;;49.17;30.47;;;;;;;;;;4950053;29;20529;-60
2023/06/18 00:46:00;;;;;;;46.27;30.37;;;;;;;;;;4950041;29;20039;-60
2023/06/18 00:48:26;;;;;;;54.70;30.77;;;;;;;;;;4949384;29;20078;-60
2023/06/18 00:50:53;;;;;;;45.80;29.47;;;;;;;;;;4950182;29;20051;-60
2023/06/18 00:53:20;;;;;;;56.93;29.93;;;;;;;;;;4956925;28;20039;-60
2023/06/18 00:55:46;;;;;;;45.63;30.33;;;;;;;;;;4957786;28;20117;-60
2023/06/18 00:58:13;;;;;;;50.77;31.03;;;;;;;;;;4948893;29;20053;-60
2023/06/18 01:00:40;;;;;;;58.60;32.33;;;;;;;;;;4951737;28;20051;-60
2023/06/18 01:03:15;;;;;;;47.33;29.80;;;;;;;;;;4953038;29;20106;-60
2023/06/18 01:05:42;;;;;;;56.87;31.67;;;;;;;;;;4969147;28;20058;-61
2023/06/18 01:08:12;;;;;;;48.07;29.73;;;;;;;;;;4970744;28;20512;-60
2023/06/18 01:10:40;;;;;;;47.33;30.60;;;;;;;;;;4972986;28;20047;-60
2023/06/18 01:13:09;;;;;;;55.23;32.67;;;;;;;;;;4972156;28;20051;-60
2023/06/18 01:15:35;;;;;;;49.27;31.00;;;;;;;;;;4972890;28;20090;-60
2023/06/18 01:18:06;;;;;;;62.57;33.13;;;;;;;;;;4972473;28;20567;-60
2023/06/18 01:20:40;;;;;;;63.80;34.93;;;;;;;;;;4972533;28;20600;-60
2023/06/18 01:23:12;;;;;;;52.80;31.60;;;;;;;;;;4972210;28;20105;-61
2023/06/18 01:25:38;;;;;;;58.33;33.43;;;;;;;;;;4972379;28;20043;-60
2023/06/18 01:28:07;;;;;;;66.03;36.77;;;;;;;;;;4972120;28;20051;-60
2023/06/18 01:30:34;;;;;;;49.40;31.03;;;;;;;;;;4968905;28;20055;-61
2023/06/18 01:32:59;;;;;;;59.60;32.27;;;;;;;;;;4951902;29;20126;-60
2023/06/18 01:35:25;;;;;;;59.73;33.17;;;;;;;;;;4953188;29;20115;-60
2023/06/18 01:38:11;;;;;;;63.53;34.63;;;;;;;;;;4952612;29;20051;-60
2023/06/18 01:40:49;;;;;;;63.93;33.70;;;;;;;;;;4958765;28;20052;-61
2023/06/18 01:43:22;;;;;;;69.97;37.63;;;;;;;;;;4952565;29;20109;-60
2023/06/18 01:45:54;;;;;;;60.90;34.67;;;;;;;;;;4952976;29;20086;-60
2023/06/18 01:48:21;;;;;;;65.63;34.03;;;;;;;;;;4955226;28;20047;-61
2023/06/18 01:50:49;;;;;;;55.30;31.93;;;;;;;;;;4952522;29;20039;-60
2023/06/18 01:53:16;;;;;;;60.03;34.10;;;;;;;;;;4952612;29;20109;-60
2023/06/18 01:55:44;;;;;;;71.00;36.03;;;;;;;;;;4952763;29;20560;-60
2023/06/18 01:58:10;;;;;;;61.73;32.43;;;;;;;;;;4952579;29;20378;-61
2023/06/18 02:00:36;;;;;;;67.30;34.70;;;;;;;;;;4952693;29;20102;-60
2023/06/18 02:03:03;;;;;;;62.40;34.50;;;;;;;;;;4951340;29;20059;-60
2023/06/18 02:05:29;;;;;;;60.47;33.57;;;;;;;;;;4952609;29;20047;-60
2023/06/18 02:07:55;;;;;;;57.00;32.87;;;;;;;;;;4960406;28;20101;-60
2023/06/18 02:10:21;;;;;;;59.47;35.13;;;;;;;;;;4971841;28;20082;-60
2023/06/18 02:12:47;;;;;;;53.77;30.83;;;;;;;;;;4970581;28;20125;-60
2023/06/18 02:15:13;;;;;;;59.13;33.87;;;;;;;;;;4971231;28;20181;-60
2023/06/18 02:17:40;;;;;;;58.13;33.77;;;;;;;;;;4971819;28;20050;-61
2023/06/18 02:20:06;;;;;;;71.37;36.80;;;;;;;;;;4971049;28;20509;-60
2023/06/18 02:22:32;;;;;;;79.10;38.00;;;;;;;;;;4971713;28;20441;-60
2023/06/18 02:24:58;;;;;;;65.03;35.00;;;;;;;;;;4971396;28;20043;-61
2023/06/18 02:27:24;;;;;;;68.27;35.27;;;;;;;;;;4970213;28;20444;-60
2023/06/18 02:29:50;;;;;;;84.23;40.23;;;;;;;;;;4971597;28;20050;-61
2023/06/18 02:32:16;;;;;;;65.00;35.33;;;;;;;;;;4971370;28;20151;-60
2023/06/18 02:34:42;;;;;;;78.00;40.17;;;;;;;;;;4971042;28;20079;-60
2023/06/18 02:37:08;;;;;;;76.87;38.07;;;;;;;;;;4971064;28;20190;-61
2023/06/18 02:39:34;;;;;;;77.10;38.13;;;;;;;;;;4970711;28;20082;-61
2023/06/18 02:42:00;;;;;;;84.93;40.33;;;;;;;;;;4971167;28;20046;-61
2023/06/18 02:44:31;;;;;;;78.43;39.60;;;;;;;;;;4969203;28;20429;-61
2023/06/18 02:46:57;;;;;;;82.77;39.33;;;;;;;;;;4969529;28;20042;-61
2023/06/18 02:49:23;;;;;;;82.03;40.00;;;;;;;;;;4970890;28;20054;-61
2023/06/18 02:51:50;;;;;;;84.40;40.27;;;;;;;;;;4970620;28;20043;-61
2023/06/18 02:54:16;;;;;;;74.47;38.30;;;;;;;;;;4970126;28;20075;-60
2023/06/18 02:56:42;;;;;;;72.63;38.67;;;;;;;;;;4970692;28;20506;-61
2023/06/18 02:59:08;;;;;;;92.13;41.80;;;;;;;;;;4970692;28;20049;-61
2023/06/18 03:01:36;;;;;;;67.93;35.80;;;;;;;;;;4970295;28;20512;-61
2023/06/18 03:04:02;;;;;;;76.73;36.90;;;;;;;;;;4970428;28;20122;-61
2023/06/18 03:06:28;;;;;;;75.73;38.43;;;;;;;;;;4970939;28;20466;-61
2023/06/18 03:08:54;;;;;;;70.97;35.83;;;;;;;;;;4970130;28;20093;-61
2023/06/18 03:11:20;;;;;;;66.17;33.00;;;;;;;;;;4970782;28;20047;-61
2023/06/18 03:13:46;;;;;;;53.20;28.27;;;;;;;;;;4970367;28;20057;-60
2023/06/18 03:16:12;;;;;;;49.00;24.03;;;;;;;;;;4970371;28;20101;-61
2023/06/18 03:18:38;;;;;;;45.10;25.90;;;;;;;;;;4970053;28;20528;-61
2023/06/18 03:21:04;;;;;;;51.00;27.23;;;;;;;;;;4970345;28;20563;-61
2023/06/18 03:23:30;;;;;;;44.83;25.13;;;;;;;;;;4969319;28;20047;-60
2023/06/18 03:25:56;;;;;;;51.73;29.30;;;;;;;;;;4969952;28;20051;-61
2023/06/18 03:28:23;;;;;;;55.13;31.70;;;;;;;;;;4969748;28;20042;-61
2023/06/18 03:30:49;;;;;;;70.33;35.00;;;;;;;;;;4970064;28;20409;-61
2023/06/18 03:33:17;;;;;;;77.60;37.47;;;;;;;;;;4969671;28;20552;-61
2023/06/18 03:35:46;;;;;;;70.53;35.00;;;;;;;;;;4969826;28;20521;-61
2023/06/18 03:38:12;;;;;;;76.40;36.00;;;;;;;;;;4969979;28;20126;-61
2023/06/18 03:40:38;;;;;;;69.67;37.63;;;;;;;;;;4969730;28;20141;-60
2023/06/18 03:43:04;;;;;;;75.23;36.47;;;;;;;;;;4969213;28;20120;-61
2023/06/18 03:45:30;;;;;;;82.03;38.73;;;;;;;;;;4970104;28;20105;-61
2023/06/18 03:47:56;;;;;;;79.23;38.43;;;;;;;;;;4969756;28;20054;-61
2023/06/18 03:50:23;;;;;;;75.27;38.73;;;;;;;;;;4969195;28;20113;-60
2023/06/18 03:52:49;;;;;;;66.77;36.37;;;;;;;;;;4968504;28;20042;-61
2023/06/18 03:55:15;;;;;;;76.27;40.30;;;;;;;;;;4969603;28;20077;-61
2023/06/18 03:57:41;;;;;;;81.27;37.83;;;;;;;;;;4969576;28;20492;-61
2023/06/18 04:00:09;;;;;;;77.03;38.93;;;;;;;;;;4968878;28;20047;-61
2023/06/18 04:02:35;;;;;;;80.07;40.40;;;;;;;;;;4969763;28;20094;-61
2023/06/18 04:05:01;;;;;;;63.83;35.30;;;;;;;;;;4969474;28;20078;-61
2023/06/18 04:07:27;;;;;;;76.70;38.20;;;;;;;;;;4968953;28;20050;-61
2023/06/18 04:09:53;;;;;;;69.60;36.13;;;;;;;;;;4969580;28;20134;-61
2023/06/18 04:12:19;;;;;;;65.40;36.33;;;;;;;;;;4969497;28;20101;-61
2023/06/18 04:14:45;;;;;;;74.93;38.33;;;;;;;;;;4968836;28;20105;-61
2023/06/18 04:17:11;;;;;;;79.37;39.57;;;;;;;;;;4969613;28;20049;-61
2023/06/18 04:19:37;;;;;;;64.97;37.67;;;;;;;;;;4969426;28;20153;-61
2023/06/18 04:22:03;;;;;;;85.77;43.60;;;;;;;;;;4969060;28;20555;-61
2023/06/18 04:24:29;;;;;;;69.83;38.83;;;;;;;;;;4969437;28;20133;-61
2023/06/18 04:26:55;;;;;;;65.53;37.70;;;;;;;;;;4968698;28;20424;-61
2023/06/18 04:29:21;;;;;;;73.80;39.43;;;;;;;;;;4969274;28;20527;-61
2023/06/18 04:31:48;;;;;;;90.17;43.13;;;;;;;;;;4967696;28;20657;-61
2023/06/18 04:34:14;;;;;;;84.90;42.37;;;;;;;;;;4949918;28;20083;-61
2023/06/18 04:36:40;;;;;;;83.97;41.53;;;;;;;;;;4953473;29;20047;-61
2023/06/18 04:39:06;;;;;;;69.60;37.40;;;;;;;;;;4951864;28;20062;-61
2023/06/18 04:41:33;;;;;;;76.07;41.87;;;;;;;;;;4953629;29;20528;-61
2023/06/18 04:43:59;;;;;;;66.33;37.93;;;;;;;;;;4936412;29;20502;-61
2023/06/18 04:46:25;;;;;;;77.23;41.07;;;;;;;;;;4953301;29;20047;-61
2023/06/18 04:48:51;;;;;;;72.87;39.90;;;;;;;;;;4953305;29;20055;-61
2023/06/18 04:51:17;;;;;;;66.00;37.83;;;;;;;;;;4953545;29;20047;-61
2023/06/18 04:53:43;;;;;;;68.30;38.10;;;;;;;;;;4953044;29;20055;-61
2023/06/18 04:56:10;;;;;;;69.80;37.90;;;;;;;;;;4953204;29;20078;-61
2023/06/18 04:58:39;;;;;;;64.67;36.43;;;;;;;;;;4953692;29;20438;-61
2023/06/18 05:01:05;;;;;;;66.00;38.20;;;;;;;;;;4952767;28;20059;-61
2023/06/18 05:03:31;;;;;;;64.57;37.70;;;;;;;;;;4952946;29;20040;-61
2023/06/18 05:05:57;;;;;;;57.63;35.93;;;;;;;;;;4953099;28;20047;-61
2023/06/18 05:08:23;;;;;;;59.13;36.43;;;;;;;;;;4965123;28;20421;-61
2023/06/18 05:10:49;;;;;;;61.30;37.17;;;;;;;;;;4972808;28;20054;-61
2023/06/18 05:13:15;;;;;;;54.90;35.27;;;;;;;;;;4972145;28;20054;-61
2023/06/18 05:15:42;;;;;;;55.73;35.07;;;;;;;;;;4971988;28;20043;-61
2023/06/18 05:18:08;;;;;;;54.63;34.27;;;;;;;;;;4971408;28;20047;-61
2023/06/18 05:20:34;;;;;;;53.73;35.37;;;;;;;;;;4972184;28;20098;-61
2023/06/18 05:23:00;;;;;;;48.40;33.40;;;;;;;;;;4971994;28;20051;-61
2023/06/18 05:25:26;;;;;;;52.80;33.87;;;;;;;;;;4972514;28;20042;-61
2023/06/18 05:27:52;;;;;;;42.07;32.27;;;;;;;;;;4971537;28;20050;-61
2023/06/18 05:30:18;;;;;;;38.80;29.57;;;;;;;;;;4971100;28;20057;-62
2023/06/18 05:32:44;;;;;;;42.60;31.50;;;;;;;;;;4971881;28;20078;-61
2023/06/18 05:35:10;;;;;;;36.60;28.53;;;;;;;;;;4971926;28;20070;-61
2023/06/18 05:37:36;;;;;;;39.97;29.30;;;;;;;;;;4971691;28;20117;-61
2023/06/18 05:40:02;;;;;;;35.90;27.53;;;;;;;;;;4971364;28;20047;-61
2023/06/18 05:42:28;;;;;;;34.80;27.23;;;;;;;;;;4971704;28;20055;-61
2023/06/18 05:44:54;;;;;;;38.73;27.23;;;;;;;;;;4971489;28;20460;-61
2023/06/18 05:47:20;;;;;;;38.37;28.43;;;;;;;;;;4971597;28;20101;-61
2023/06/18 05:49:46;;;;;;;42.97;27.93;;;;;;;;;;4971098;28;20059;-61
2023/06/18 05:52:12;;;;;;;34.33;26.67;;;;;;;;;;4971541;28;20297;-61
2023/06/18 05:54:39;;;;;;;35.63;25.20;;;;;;;;;;4971573;28;20169;-61
2023/06/18 05:57:05;;;;;;;37.10;26.37;;;;;;;;;;4971490;28;20054;-61
2023/06/18 05:59:31;;;;;;;30.20;25.03;;;;;;;;;;4971369;28;20397;-61
2023/06/18 06:01:57;;;;;;;33.30;24.80;;;;;;;;;;4971651;28;20050;-61
2023/06/18 06:04:23;;;;;;;31.67;25.37;;;;;;;;;;4971702;28;20043;-61
2023/06/18 06:06:49;;;;;;;31.43;24.47;;;;;;;;;;4971334;28;20043;-62
2023/06/18 06:09:15;;;;;;;34.17;24.10;;;;;;;;;;4952355;28;20055;-61
2023/06/18 06:11:41;;;;;;;30.47;23.17;;;;;;;;;;4951773;29;20055;-61
2023/06/18 06:14:07;;;;;;;34.57;23.53;;;;;;;;;;4951898;29;20043;-61
2023/06/18 06:16:33;;;;;;;33.03;25.17;;;;;;;;;;4952056;29;20091;-62
2023/06/18 06:18:59;;;;;;;28.17;22.23;;;;;;;;;;4952005;29;20524;-62
2023/06/18 06:21:25;;;;;;;27.73;22.73;;;;;;;;;;4951717;29;20039;-62
2023/06/18 06:23:52;;;;;;;28.83;21.77;;;;;;;;;;4951707;29;20525;-62
2023/06/18 06:26:17;;;;;;;28.53;21.93;;;;;;;;;;4951227;29;20501;-61
2023/06/18 06:28:43;;;;;;;28.10;22.43;;;;;;;;;;4951361;29;20047;-61
2023/06/18 06:31:09;;;;;;;24.50;20.70;;;;;;;;;;4951573;29;20412;-62
2023/06/18 06:33:36;;;;;;;29.63;20.90;;;;;;;;;;4951645;29;20047;-62
2023/06/18 06:36:02;;;;;;;23.97;19.80;;;;;;;;;;4950865;29;20066;-61
2023/06/18 06:38:28;;;;;;;26.20;19.67;;;;;;;;;;4951485;29;20040;-61
2023/06/18 06:40:54;;;;;;;25.63;19.63;;;;;;;;;;4951460;29;20494;-61
2023/06/18 06:43:20;;;;;;;24.20;18.47;;;;;;;;;;4951382;29;20113;-61
2023/06/18 06:45:46;;;;;;;22.53;18.20;;;;;;;;;;4950990;29;20071;-61
2023/06/18 06:48:12;;;;;;;23.17;17.13;;;;;;;;;;4934162;29;20078;-61
2023/06/18 06:50:38;;;;;;;21.87;18.00;;;;;;;;;;4951253;29;20039;-61
2023/06/18 06:53:04;;;;;;;24.80;19.17;;;;;;;;;;4951015;29;20039;-61
2023/06/18 06:55:30;;;;;;;24.53;19.40;;;;;;;;;;4950804;29;20569;-61
2023/06/18 06:57:56;;;;;;;25.10;19.40;;;;;;;;;;4949066;28;20047;-61
2023/06/18 07:00:22;;;;;;;24.93;17.90;;;;;;;;;;4949853;29;20051;-61
2023/06/18 07:02:48;;;;;;;23.63;16.80;;;;;;;;;;4951318;29;20091;-61
2023/06/18 07:05:14;;;;;;;23.20;18.27;;;;;;;;;;4951430;29;20089;-62
2023/06/18 07:07:40;;;;;;;21.70;17.97;;;;;;;;;;4951196;29;20596;-62
2023/06/18 07:10:06;;;;;;;22.87;18.47;;;;;;;;;;4951358;29;20145;-61
2023/06/18 07:12:32;;;;;;;21.47;17.30;;;;;;;;;;4950988;29;20135;-62
2023/06/18 07:14:58;;;;;;;21.60;16.40;;;;;;;;;;4950612;29;20433;-62
2023/06/18 07:17:24;;;;;;;23.43;16.47;;;;;;;;;;4933719;29;20051;-61
2023/06/18 07:19:52;;;;;;;22.70;16.83;;;;;;;;;;4949395;29;20050;-61
2023/06/18 07:22:18;;;;;;;21.87;17.00;;;;;;;;;;4950847;29;20501;-61
2023/06/18 07:24:44;;;;;;;22.77;17.13;;;;;;;;;;4951053;28;20093;-62
2023/06/18 07:27:10;;;;;;;24.33;17.67;;;;;;;;;;4950111;29;20055;-62
2023/06/18 07:29:36;;;;;;;21.90;16.50;;;;;;;;;;4949826;29;20102;-61
2023/06/18 07:32:02;;;;;;;20.27;16.30;;;;;;;;;;4950781;29;20113;-62
2023/06/18 07:34:28;;;;;;;21.20;15.47;;;;;;;;;;4950749;29;20039;-62
2023/06/18 07:36:55;;;;;;;17.10;14.93;;;;;;;;;;4949599;29;20164;-61
2023/06/18 07:39:21;;;;;;;20.97;15.70;;;;;;;;;;4940214;29;20051;-62
2023/06/18 07:41:47;;;;;;;19.55;14.05;;;;;;;;;;4948735;29;20249;-61
2023/06/18 07:44:14;;;;;;;18.83;14.52;;;;;;;;;;4949407;29;20047;-63
2023/06/18 07:46:42;;;;;;;17.65;14.68;;;;;;;;;;4950709;29;20043;-63
2023/06/18 07:49:08;;;;;;;19.80;16.25;;;;;;;;;;4950510;29;20737;-63
2023/06/18 07:51:34;;;;;;;17.15;13.70;;;;;;;;;;4950314;29;20501;-62
2023/06/18 07:54:00;;;;;;;17.92;12.70;;;;;;;;;;4950352;29;20548;-62
2023/06/18 07:56:26;;;;;;;19.50;14.05;;;;;;;;;;4950359;29;20098;-63
2023/06/18 07:58:52;;;;;;;15.52;13.57;;;;;;;;;;4951056;28;20129;-63
2023/06/18 08:01:19;;;;;;;18.67;12.90;;;;;;;;;;4969431;28;20516;-63
2023/06/18 08:03:45;;;;;;;17.67;13.75;;;;;;;;;;4967674;28;20050;-63
2023/06/18 08:06:11;;;;;;;14.95;12.13;;;;;;;;;;4946418;29;20044;-63
2023/06/18 08:08:37;;;;;;;14.93;12.80;;;;;;;;;;4961519;28;20055;-64
2023/06/18 08:11:03;;;;;;;15.60;13.18;;;;;;;;;;4969025;28;20058;-63
2023/06/18 08:13:30;;;;;;;13.63;11.82;;;;;;;;;;4969031;28;20043;-63
2023/06/18 08:15:56;;;;;;;14.10;10.52;;;;;;;;;;4969476;28;20042;-63
2023/06/18 08:18:22;;;;;;;14.68;11.18;;;;;;;;;;4970020;28;20153;-63
2023/06/18 08:20:48;;;;;;;14.32;12.55;;;;;;;;;;4969711;28;20058;-63
2023/06/18 08:23:17;;;;;;;13.73;11.10;;;;;;;;;;4969436;28;20054;-63
2023/06/18 08:25:43;;;;;;;11.70;9.75;;;;;;;;;;4969234;28;20050;-63
2023/06/18 08:28:09;;;;;;;12.77;9.68;;;;;;;;;;4969503;28;20047;-63
2023/06/18 08:30:35;;;;;;;11.50;9.15;;;;;;;;;;4956728;28;20178;-63
2023/06/18 08:33:01;;;;;;;12.20;10.77;;;;;;;;;;4968595;28;20042;-63
2023/06/18 08:35:27;;;;;;;13.80;10.38;;;;;;;;;;4969499;28;20137;-63
2023/06/18 08:37:53;;;;;;;11.32;9.93;;;;;;;;;;4970688;28;20166;-63
2023/06/18 08:40:21;;;;;;;8.70;7.80;;;;;;;;;;4966309;28;20043;-63
2023/06/18 08:42:47;;;;;;;10.18;7.75;;;;;;;;;;4970850;28;20492;-63
2023/06/18 08:45:13;;;;;;;9.68;8.35;;;;;;;;;;4962530;28;20066;-63
2023/06/18 08:47:40;;;;;;;14.13;8.68;;;;;;;;;;4955014;28;20843;-63
2023/06/18 08:50:07;;;;;;;8.50;7.63;;;;;;;;;;4970476;28;20509;-63
2023/06/18 08:52:33;;;;;;;10.20;7.88;;;;;;;;;;4969400;28;20043;-63
2023/06/18 08:55:02;;;;;;;8.02;7.22;;;;;;;;;;4970360;28;20054;-63
2023/06/18 08:57:32;;;;;;;9.02;7.93;;;;;;;;;;4970329;28;20076;-63
2023/06/18 08:59:59;;;;;;;8.95;7.70;;;;;;;;;;4956050;28;20047;-63
2023/06/18 09:02:25;;;;;;;10.77;8.25;;;;;;;;;;4963461;28;20105;-63
2023/06/18 09:04:52;;;;;;;8.88;7.40;;;;;;;;;;4970701;28;20047;-63
2023/06/18 09:07:18;;;;;;;10.77;7.28;;;;;;;;;;4970178;28;20061;-63
2023/06/18 09:09:44;;;;;;;8.70;6.63;;;;;;;;;;4970315;28;20055;-63
2023/06/18 09:12:10;;;;;;;9.85;6.97;;;;;;;;;;4969571;28;20408;-63
2023/06/18 09:14:36;;;;;;;8.43;7.40;;;;;;;;;;4970398;28;20598;-63
2023/06/18 09:17:02;;;;;;;11.15;7.05;;;;;;;;;;4969049;28;20046;-63
2023/06/18 09:19:28;;;;;;;8.45;6.40;;;;;;;;;;4970062;28;20150;-63
2023/06/18 09:21:55;;;;;;;9.13;6.25;;;;;;;;;;4971598;28;20049;-63
2023/06/18 09:24:24;;;;;;;7.32;6.63;;;;;;;;;;4972550;28;20527;-63
2023/06/18 09:26:51;;;;;;;8.70;6.88;;;;;;;;;;4974602;28;20046;-64
2023/06/18 09:29:17;;;;;;;8.43;7.32;;;;;;;;;;4972827;28;20043;-63
2023/06/18 09:31:44;;;;;;;11.98;7.18;;;;;;;;;;4987284;28;20129;-63
2023/06/18 09:34:18;;;;;;;9.02;7.20;;;;;;;;;;4979091;28;20050;-63
2023/06/18 09:36:44;;;;;;;9.73;7.32;;;;;;;;;;4977737;28;20467;-63
2023/06/18 09:39:17;;;;;;;9.13;7.18;;;;;;;;;;4992370;28;20520;-63
2023/06/18 09:41:46;;;;;;;7.15;6.45;;;;;;;;;;4975209;28;20060;-63
2023/06/18 09:44:15;;;;;;;9.43;7.35;;;;;;;;;;4990796;28;20084;-63
2023/06/18 09:46:48;;;;;;;9.93;7.13;;;;;;;;;;4971212;28;20047;-64
2023/06/18 09:49:16;;;;;;;9.13;6.88;;;;;;;;;;4968150;28;20497;-64
2023/06/18 09:51:42;;;;;;;7.70;7.00;;;;;;;;;;4971768;28;20047;-64
2023/06/18 09:54:08;;;;;;;8.45;6.95;;;;;;;;;;4970745;28;20046;-64
2023/06/18 09:56:35;;;;;;;9.77;6.65;;;;;;;;;;4967773;28;20476;-64
2023/06/18 09:59:03;;;;;;;7.53;6.28;;;;;;;;;;4969812;28;20074;-64
2023/06/18 10:01:29;;;;;;;9.98;6.88;;;;;;;;;;4969774;28;20125;-64
2023/06/18 10:03:56;;;;;;;7.90;6.97;;;;;;;;;;4970636;28;20058;-64
2023/06/18 10:06:23;;;;;;;7.50;6.75;;;;;;;;;;4969751;28;20042;-63
2023/06/18 10:08:50;;;;;;;8.50;6.45;;;;;;;;;;4971264;28;20078;-64
2023/06/18 10:11:17;;;;;;;10.18;6.82;;;;;;;;;;4970702;28;20039;-63
2023/06/18 10:13:47;;;;;;;9.15;6.35;;;;;;;;;;4968844;28;20047;-64
2023/06/18 10:16:14;;;;;;;7.55;6.25;;;;;;;;;;4971807;28;20448;-63
2023/06/18 10:18:59;;;;;;;7.22;5.93;;;;;;;;;;4969494;28;20046;-64
2023/06/18 10:21:25;;;;;;;7.22;6.32;;;;;;;;;;4952443;29;20061;-64
2023/06/18 10:23:54;;;;;;;10.52;7.78;;;;;;;;;;4952710;29;20054;-63
2023/06/18 10:26:21;;;;;;;13.82;7.50;;;;;;;;;;4952471;28;20055;-63
2023/06/18 10:28:48;;;;;;;7.80;7.00;;;;;;;;;;4951768;29;20047;-64
2023/06/18 10:31:14;;;;;;;7.45;6.55;;;;;;;;;;4952103;29;20421;-64
2023/06/18 10:33:40;;;;;;;8.55;6.60;;;;;;;;;;4951554;28;20039;-63
2023/06/18 10:36:06;;;;;;;9.50;6.03;;;;;;;;;;4952135;29;20477;-63
2023/06/18 10:38:34;;;;;;;8.18;5.85;;;;;;;;;;4952354;29;20057;-63
2023/06/18 10:41:27;;;;;;;7.43;5.95;;;;;;;;;;4951840;29;20059;-63
2023/06/18 10:43:53;;;;;;;;;;;;;;;;;;4949227;29;20059;-63
2023/06/18 10:46:19;;;;;;;9.10;5.93;;;;;;;;;;4952180;29;20061;-64
2023/06/18 10:49:04;;;;;;;8.43;5.70;;;;;;;;;;4951856;29;20055;-64
2023/06/18 10:51:30;;;;;;;6.32;5.65;;;;;;;;;;4952013;29;20402;-64
2023/06/18 10:54:23;;;;;;;7.13;6.35;;;;;;;;;;4968923;28;20051;-63
2023/06/18 10:56:51;;;;;;;6.20;5.32;;;;;;;;;;4967741;28;20055;-63
2023/06/18 10:59:32;;;;;;;7.22;6.05;;;;;;;;;;4969959;28;20086;-63
2023/06/18 11:01:59;;;;;;;6.25;5.60;;;;;;;;;;4971248;28;20043;-64
2023/06/18 11:04:29;;;;;;;7.85;5.80;;;;;;;;;;4969527;28;20054;-64
2023/06/18 11:07:10;;;;;;;7.07;5.53;;;;;;;;;;4971221;28;20062;-63
2023/06/18 11:09:47;;;;;;;6.27;5.67;;;;;;;;;;4971372;28;20046;-63
2023/06/18 11:12:29;;;;;;;8.63;6.50;;;;;;;;;;4970777;28;20046;-64
2023/06/18 11:15:10;;;;;;;5.95;5.35;;;;;;;;;;4971096;28;20445;-64
2023/06/18 11:17:36;;;;;;;6.05;5.45;;;;;;;;;;4970359;28;20050;-64
2023/06/18 11:20:03;;;;;;;7.10;4.70;;;;;;;;;;4971169;28;20050;-64
2023/06/18 11:22:30;;;;;;;8.40;5.18;;;;;;;;;;4971385;28;20051;-64
2023/06/18 11:24:58;;;;;;;7.20;5.30;;;;;;;;;;4970759;28;20513;-64
2023/06/18 11:27:25;;;;;;;7.72;5.70;;;;;;;;;;4969607;28;20050;-64
2023/06/18 11:29:55;;;;;;;6.10;5.50;;;;;;;;;;4970956;28;20409;-64
2023/06/18 11:32:23;;;;;;;5.90;5.30;;;;;;;;;;4967998;28;20045;-64
2023/06/18 11:34:49;;;;;;;7.45;5.60;;;;;;;;;;4951715;28;20069;-64
2023/06/18 11:37:15;;;;;;;5.88;5.25;;;;;;;;;;4961833;28;20051;-64
2023/06/18 11:39:41;;;;;;;7.47;5.43;;;;;;;;;;4970399;28;20050;-64
2023/06/18 11:42:13;;;;;;;7.25;5.75;;;;;;;;;;4970782;28;20072;-64
2023/06/18 11:44:39;;;;;;;;;;;;;;;;;;4970551;28;20085;-64
2023/06/18 11:47:08;;;;;;;5.85;5.32;;;;;;;;;;4966984;28;19969;-64
2023/06/18 11:49:34;;;;;;;9.35;6.45;;;;;;;;;;4970920;28;20047;-64
2023/06/18 11:52:00;;;;;;;8.52;5.97;;;;;;;;;;4971223;28;20042;-64
2023/06/18 11:54:27;;;;;;;6.20;5.60;;;;;;;;;;4969264;28;20061;-64
2023/06/18 11:56:54;;;;;;;8.63;6.13;;;;;;;;;;4963687;28;20050;-64
2023/06/18 11:59:21;;;;;;;8.75;6.10;;;;;;;;;;4969702;28;20501;-64
2023/06/18 12:01:46;;;;;;;8.02;5.50;;;;;;;;;;4971310;28;20054;-64
2023/06/18 12:04:12;;;;;;;8.38;5.35;;;;;;;;;;4970372;28;20126;-65
2023/06/18 12:06:38;;;;;;;6.82;5.43;;;;;;;;;;4969962;28;20181;-64
2023/06/18 12:09:05;;;;;;;12.13;5.93;;;;;;;;;;4970837;28;20058;-65
2023/06/18 12:11:36;;;;;;;8.05;5.20;;;;;;;;;;4969269;28;20314;-64
2023/06/18 12:14:06;;;;;;;6.03;5.45;;;;;;;;;;4970632;28;20165;-64
2023/06/18 12:16:33;;;;;;;6.82;5.53;;;;;;;;;;4968542;28;20042;-64
2023/06/18 12:19:01;;;;;;;5.28;4.68;;;;;;;;;;4970838;28;20046;-64
2023/06/18 12:21:28;;;;;;;6.07;5.53;;;;;;;;;;4954933;28;20063;-64
2023/06/18 12:23:56;;;;;;;6.50;5.60;;;;;;;;;;4968616;28;20046;-64
2023/06/18 12:26:23;;;;;;;7.20;5.95;;;;;;;;;;4970426;28;20054;-64
2023/06/18 12:28:49;;;;;;;6.03;5.40;;;;;;;;;;4970442;28;20178;-64
2023/06/18 12:31:15;;;;;;;8.90;5.68;;;;;;;;;;4970594;28;20050;-64
2023/06/18 12:33:43;;;;;;;6.38;5.78;;;;;;;;;;4970624;28;20062;-64
2023/06/18 12:36:09;;;;;;;8.30;5.32;;;;;;;;;;4970499;28;20051;-64
2023/06/18 12:38:39;;;;;;;6.45;5.85;;;;;;;;;;4970634;28;20043;-64
2023/06/18 12:41:05;;;;;;;9.35;5.85;;;;;;;;;;4970667;28;20047;-64
2023/06/18 12:43:38;;;;;;;8.15;5.75;;;;;;;;;;4970745;28;20134;-64
2023/06/18 12:46:04;;;;;;;6.35;5.22;;;;;;;;;;4969692;28;20093;-64
2023/06/18 12:48:37;;;;;;;9.73;5.03;;;;;;;;;;4963627;28;20058;-64
2023/06/18 12:51:03;;;;;;;6.93;5.20;;;;;;;;;;4951377;28;20049;-64
2023/06/18 12:53:29;;;;;;;7.18;5.47;;;;;;;;;;4962380;28;20179;-64
2023/06/18 12:55:56;;;;;;;6.45;5.85;;;;;;;;;;4958766;28;20102;-64
2023/06/18 12:58:26;;;;;;;7.25;5.72;;;;;;;;;;4958495;28;20058;-64
2023/06/18 13:00:53;;;;;;;6.32;5.72;;;;;;;;;;4972505;28;20416;-64
2023/06/18 13:03:19;;;;;;;10.93;7.25;;;;;;;;;;4972681;28;20484;-64
2023/06/18 13:05:47;;;;;;;10.38;6.38;;;;;;;;;;4972408;28;20043;-64
2023/06/18 13:08:16;;;;;;;8.20;6.20;;;;;;;;;;4961914;28;20488;-64
2023/06/18 13:10:42;;;;;;;6.25;5.38;;;;;;;;;;4957219;28;20054;-64
2023/06/18 13:13:08;;;;;;;8.45;5.80;;;;;;;;;;4969737;28;20416;-64
2023/06/18 13:15:35;;;;;;;7.78;6.40;;;;;;;;;;4971286;28;20046;-64
2023/06/18 13:18:01;;;;;;;7.15;6.25;;;;;;;;;;4964731;28;20476;-64
2023/06/18 13:20:27;;;;;;;6.30;5.68;;;;;;;;;;4972353;28;20162;-64
2023/06/18 13:22:54;;;;;;;7.00;5.15;;;;;;;;;;4962014;28;20043;-64
2023/06/18 13:25:20;;;;;;;7.88;5.50;;;;;;;;;;4956519;28;20046;-64
2023/06/18 13:27:46;;;;;;;7.93;5.45;;;;;;;;;;4972835;28;20042;-64
2023/06/18 13:30:12;;;;;;;7.45;5.78;;;;;;;;;;4955450;28;20139;-64
2023/06/18 13:32:38;;;;;;;7.28;5.85;;;;;;;;;;4955293;28;20066;-64
2023/06/18 13:35:05;;;;;;;8.45;5.10;;;;;;;;;;4972188;28;20031;-64
2023/06/18 13:37:31;;;;;;;6.30;5.65;;;;;;;;;;4969954;28;20042;-64
2023/06/18 13:39:57;;;;;;;6.03;5.43;;;;;;;;;;4968422;28;20067;-64
2023/06/18 13:42:23;;;;;;;6.28;5.20;;;;;;;;;;4969173;28;20483;-64
2023/06/18 13:44:49;;;;;;;6.95;5.38;;;;;;;;;;4968117;28;20108;-64
2023/06/18 13:47:15;;;;;;;6.05;5.03;;;;;;;;;;4972246;28;20050;-63
2023/06/18 13:49:41;;;;;;;8.00;5.18;;;;;;;;;;4972930;28;20051;-64
2023/06/18 13:52:07;;;;;;;6.13;5.53;;;;;;;;;;4972429;28;20046;-63
2023/06/18 13:54:34;;;;;;;9.60;6.20;;;;;;;;;;4970130;28;20047;-64
2023/06/18 13:57:00;;;;;;;9.27;4.40;;;;;;;;;;4953289;28;20047;-63
2023/06/18 13:59:26;;;;;;;6.68;5.63;;;;;;;;;;4956022;28;20055;-63
2023/06/18 14:01:52;;;;;;;6.35;4.90;;;;;;;;;;4972719;28;20053;-64
2023/06/18 14:04:18;;;;;;;8.95;5.20;;;;;;;;;;4971767;28;20142;-64
2023/06/18 14:06:44;;;;;;;6.95;4.85;;;;;;;;;;4980685;28;20050;-63
2023/06/18 14:09:10;;;;;;;6.28;5.50;;;;;;;;;;4986042;28;20059;-64
2023/06/18 14:11:37;;;;;;;5.93;4.95;;;;;;;;;;4972764;28;20054;-64
2023/06/18 14:14:03;;;;;;;5.72;5.18;;;;;;;;;;4953408;28;20051;-64
2023/06/18 14:16:30;;;;;;;8.50;5.78;;;;;;;;;;4952165;28;20054;-63
2023/06/18 14:18:56;;;;;;;5.88;5.05;;;;;;;;;;4952562;28;20059;-63
2023/06/18 14:21:22;;;;;;;7.22;5.15;;;;;;;;;;4955307;28;20062;-63
2023/06/18 14:23:51;;;;;;;6.88;5.68;;;;;;;;;;4992133;28;20031;-63
2023/06/18 14:26:17;;;;;;;8.30;5.80;;;;;;;;;;4975256;28;20051;-63
2023/06/18 14:28:43;;;;;;;10.27;5.63;;;;;;;;;;4971672;28;20043;-63